EW7452 Krunni FI current weather conditions

sailwx.info

Wind from 106 at 6 knots gusting 8

Air temperature 14.4° C
Dewpoint 11.0° C

Last reported at 2020-Aug-12 17:02 UTC.
Time now 2020-Aug-12 18:14 UTC

Location: N 63°59' E 023°09'.
View on Google Maps.

See reports from other nearby stations

  
Tides and Currents Weather Stations Pressure Air Temp Water Temp Dewpoint Dewpoint Depression Visibility Wind Speed Wind Dir Waves Ship Positions
date/time (UTC)wind fromknots sea level pressurealtimeterstation pressurevisibilityair tempwater tempwave heightnotes
2020-Aug-12 17:02 106 6 gusting 8 14.4
2020-Aug-12 16:45 094 6 gusting 8 14.4
2020-Aug-12 16:01 139 1 gusting 5 14.4
2020-Aug-12 15:48 137 2 gusting 4 14.4
2020-Aug-12 15:30 135 2 gusting 4 14.4
2020-Aug-12 15:15 133 2 gusting 4 14.4
2020-Aug-12 15:00 155 2 gusting 4 14.4
2020-Aug-12 14:30 234 0 gusting 2 14.4
2020-Aug-12 14:15 234 1 gusting 3 14.4
2020-Aug-12 14:00 214 3 gusting 5 15.0
2020-Aug-12 13:30 167 0 gusting 2 15.0
2020-Aug-12 12:46 239 4 gusting 7 15.6
2020-Aug-12 12:15 250 11 gusting 13 16.7
2020-Aug-12 12:00 249 7 gusting 9 17.2
2020-Aug-12 11:30 240 6 gusting 7 17.2
2020-Aug-12 11:15 231 6 gusting 10 17.8
2020-Aug-12 11:00 237 7 gusting 8 17.8
2020-Aug-12 10:30 250 6 gusting 9 17.8
2020-Aug-12 10:15 246 6 gusting 9 17.8
2020-Aug-12 10:00 243 7 gusting 9 18.3
2020-Aug-12 09:15 217 4 gusting 6 17.8
2020-Aug-12 08:15 181 3 gusting 6 15.6
2020-Aug-12 08:00 170 3 gusting 6 15.6
2020-Aug-12 07:45 193 6 gusting 8 15.0
2020-Aug-12 07:30 201 6 gusting 8 14.4
2020-Aug-12 07:15 190 5 gusting 7 14.4
2020-Aug-12 07:00 173 5 gusting 8 13.9
2020-Aug-12 06:30 190 6 gusting 8 13.3
2020-Aug-12 06:15 176 4 gusting 7 12.8
2020-Aug-12 05:15 182 6 gusting 10 12.8
2020-Aug-12 04:47 170 5 gusting 8 12.8
2020-Aug-12 04:30 199 6 gusting 8 12.8
2020-Aug-12 04:15 181 6 gusting 9 12.8
2020-Aug-12 04:02 187 5 gusting 11 12.8
2020-Aug-12 03:15 197 5 gusting 9 12.8
2020-Aug-12 03:00 163 5 gusting 8 12.8
2020-Aug-12 02:30 172 4 gusting 7 12.8
2020-Aug-12 02:17 172 3 gusting 6 12.8
2020-Aug-12 01:46 189 2 gusting 6 13.3
2020-Aug-12 01:30 193 3 gusting 6 13.3
2020-Aug-12 01:15 189 3 gusting 6 13.3
2020-Aug-12 01:00 185 4 gusting 6 13.3
2020-Aug-12 00:45 186 2 gusting 6 13.3
2020-Aug-12 00:31 185 4 gusting 6 13.9
2020-Aug-12 00:00 194 3 gusting 6 13.9
2020-Aug-11 23:45 173 4 gusting 7 14.4
2020-Aug-11 23:30 179 2 gusting 5 14.4
2020-Aug-11 23:15 181 3 gusting 6 14.4
2020-Aug-11 21:30 174 1 gusting 4 15.0
2020-Aug-11 21:15 153 2 gusting 4 15.0
2020-Aug-11 20:45 101 1 gusting 5 15.0
2020-Aug-11 20:30 099 2 gusting 3 15.0
2020-Aug-11 20:15 091 2 gusting 5 14.4
2020-Aug-11 20:00 096 2 gusting 5 14.4
2020-Aug-11 19:45 075 1 gusting 3 15.0
2020-Aug-11 19:30 076 2 gusting 5 15.0
2020-Aug-11 19:01 058 2 gusting 5 15.6
2020-Aug-11 18:30 056 3 gusting 7 16.1
2020-Aug-11 18:15 108 3 gusting 8 16.1
2020-Aug-11 17:45 047 4 gusting 7 16.1
2020-Aug-11 16:30 039 4 gusting 9 16.1
2020-Aug-11 16:15 043 6 gusting 9 16.1
2020-Aug-11 16:00 049 4 gusting 9 16.1
2020-Aug-11 15:45 040 2 gusting 7 16.1
2020-Aug-11 14:45 016 3 gusting 9 16.7
2020-Aug-11 14:15 015 4 gusting 8 16.7
2020-Aug-11 13:45 038 4 gusting 8 16.7
2020-Aug-11 13:15 025 3 gusting 7 16.7
2020-Aug-11 13:00 039 4 gusting 8 16.7
2020-Aug-11 12:45 038 3 gusting 7 17.2
2020-Aug-11 12:30 034 2 gusting 6 17.2
2020-Aug-11 12:15 021 2 gusting 8 17.2
2020-Aug-11 12:00 004 1 gusting 6 16.7
2020-Aug-11 11:30 017 2 gusting 8 16.7
2020-Aug-11 10:30 039 3 gusting 9 16.7
2020-Aug-11 10:15 027 6 gusting 9 16.7
2020-Aug-11 10:00 064 6 gusting 11 16.7
2020-Aug-11 09:46 033 5 gusting 10 16.7
2020-Aug-11 08:00 009 4 gusting 7 15.6
2020-Aug-11 07:30 354 6 gusting 10 16.1
2020-Aug-11 07:15 029 6 gusting 11 16.7
2020-Aug-11 07:00 051 9 gusting 12 16.7
2020-Aug-11 06:31 019 4 gusting 8 17.2
2020-Aug-11 06:15 031 0 gusting 3 18.3
2020-Aug-11 06:00 288 0 gusting 3 18.3
2020-Aug-11 05:30 270 17.8
2020-Aug-11 04:45 172 15.6
2020-Aug-11 04:30 093 1 gusting 5 15.6
2020-Aug-11 04:15 118 1 gusting 3 15.6
2020-Aug-11 03:45 096 2 gusting 6 15.0
2020-Aug-11 03:30 085 4 gusting 6 15.0
2020-Aug-11 03:15 087 4 gusting 6 15.0
2020-Aug-11 03:00 065 4 gusting 6 15.0
2020-Aug-11 02:30 107 5 gusting 6 15.0
2020-Aug-11 02:15 089 2 gusting 6 15.0
2020-Aug-11 01:30 050 2 gusting 5 15.6
2020-Aug-11 01:15 070 4 gusting 7 15.6
2020-Aug-11 01:00 054 3 gusting 6 15.6
2020-Aug-11 00:15 072 8 gusting 13 15.6
2020-Aug-11 00:00 058 9 gusting 14 16.1
2020-Aug-10 23:30 319 7 gusting 11 16.1
2020-Aug-10 23:15 020 6 gusting 11 16.1
2020-Aug-10 22:31 030 5 gusting 11 16.1
2020-Aug-10 22:15 044 4 gusting 11 16.1
2020-Aug-10 21:45 031 5 gusting 10 16.1
2020-Aug-10 21:30 040 6 gusting 12 16.1
2020-Aug-10 20:45 033 4 gusting 10 16.1
2020-Aug-10 19:45 012 4 gusting 11 16.1
2020-Aug-10 19:30 051 7 gusting 12 16.1
2020-Aug-10 19:00 359 6 gusting 12 16.1
2020-Aug-10 18:45 012 4 gusting 10 16.1
2020-Aug-10 18:30 023 6 gusting 13 16.1
2020-Aug-10 18:15 330 6 gusting 13 16.1